Red Fish — WDF3926 — position and weather

sailwx.info

Track history (hours):
 
Tides and Currents Weather Stations Pressure Air Temp Water Temp Dewpoint Dewpoint Depression Visibility Wind Speed Wind Dir Waves Ship Positions

Red Fish

Owner: Higman Barge Lines, Inc 1980 Post Oak Blvd., Suite 1101 Houston, Texas 77056, Orange, TX. More information available from US FCC via Universal Licensing System and Coast Guard Vessel Documentation Center.

Last reported at 2018-May-25 19:54 UTC. Time now 2018-May-26 02:31 UTC.
Position N 29°43' W 095°15'.

Length 205 m; draft 3 m.

Type: . MMSI: 367445690.

Date/timePositionNaut miles runAvg speedWind from/ knotsBaromVisibWave heightAir tempDewpointWater temp
2018-May-25 19:54N 29°43' W 095°15'1 0.1
2018-May-25 10:13N 29°43' W 095°15'0 0.0
2018-May-25 09:45N 29°43' W 095°15'0 0.0
2018-May-25 09:24N 29°43' W 095°15'1 0.1
2018-May-24 23:06N 29°43' W 095°14'1 5.3
2018-May-24 22:58N 29°44' W 095°13'3 6.3
2018-May-24 22:26N 29°45' W 095°10'6 0.3
2018-May-24 03:06N 29°47' W 095°04'0 0.0
2018-May-23 22:46N 29°47' W 095°04'0 0.0
2018-May-23 22:30N 29°47' W 095°04'0 0.5
2018-May-23 22:00N 29°47' W 095°04'0 0.1
2018-May-23 21:29N 29°47' W 095°04'0 0.3
2018-May-23 20:55N 29°47' W 095°04'0 0.0
2018-May-23 20:25N 29°47' W 095°04'0 0.0
2018-May-23 20:00N 29°47' W 095°04'0 0.0
2018-May-23 19:14N 29°47' W 095°04'2 0.7
2018-May-23 16:27N 29°46' W 095°06'0 0.8
2018-May-23 15:57N 29°46' W 095°06'0 0.0
2018-May-23 15:30N 29°46' W 095°06'0 0.0
2018-May-23 15:00N 29°46' W 095°06'0 0.0
2018-May-23 14:30N 29°46' W 095°06'0 0.0
2018-May-23 14:00N 29°46' W 095°06'1 1.0
2018-May-23 13:18N 29°46' W 095°05'2 2.8
2018-May-23 12:43N 29°47' W 095°04'0 0.0
2018-May-23 12:19N 29°47' W 095°04'0 0.0
2018-May-23 11:37N 29°47' W 095°04'0 0.5
2018-May-23 10:46N 29°47' W 095°05'1 0.1
2018-May-23 03:29N 29°47' W 095°04'2 0.3
2018-May-22 22:24N 29°46' W 095°05'1 1.7
2018-May-22 21:58N 29°46' W 095°06'0 0.0
2018-May-22 21:30N 29°46' W 095°06'1 0.5
2018-May-22 19:10N 29°46' W 095°05'2 4.7
2018-May-22 18:43N 29°44' W 095°03'2 6.4
2018-May-22 18:28N 29°44' W 095°02'2 5.3
2018-May-22 18:01N 29°42' W 094°60'4 7.3
2018-May-22 17:31N 29°39' W 094°58'3 6.9
2018-May-22 17:00N 29°36' W 094°56'4 7.3
2018-May-22 16:30N 29°33' W 094°54'4 8.0
2018-May-22 15:59N 29°29' W 094°52'4 8.2
2018-May-22 15:30N 29°25' W 094°50'4 8.3
2018-May-22 15:00N 29°21' W 094°48'2 4.2
2018-May-22 14:30N 29°20' W 094°50'3 5.8
2018-May-22 14:01N 29°18' W 094°53'2 4.2
2018-May-22 13:31N 29°17' W 094°55'3 5.3
2018-May-22 13:01N 29°17' W 094°58'3 5.3
2018-May-22 12:30N 29°15' W 095°00'2 4.9
2018-May-22 12:01N 29°13' W 095°02'2 4.9
2018-May-22 11:31N 29°12' W 095°04'2 4.7
2018-May-22 11:00N 29°10' W 095°07'3 5.0
2018-May-22 10:30N 29°09' W 095°09'1 2.8
2018-May-22 10:00N 29°08' W 095°10'0 0.6
2018-May-22 09:30N 29°08' W 095°10'1 2.1
2018-May-22 09:00N 29°07' W 095°11'2 3.3
2018-May-22 08:30N 29°06' W 095°12'2 3.7
2018-May-22 08:00N 29°04' W 095°13'2 4.1
2018-May-22 07:30N 29°02' W 095°14'2 4.2
2018-May-22 07:00N 29°00' W 095°15'2 3.9
2018-May-22 06:30N 28°59' W 095°16'2 3.3
2018-May-22 06:00N 28°57' W 095°17'2 4.4
2018-May-22 05:27N 28°56' W 095°19'2 2.1
2018-May-22 04:19N 28°54' W 095°22'0 1.4
2018-May-22 04:00N 28°54' W 095°22'  
2018-May-18 09:20N 28°54' W 095°23'1 2.7
2018-May-18 09:00N 28°54' W 095°22'1 3.0
2018-May-18 08:30N 28°54' W 095°24'0 0.2
2018-May-18 08:00N 28°54' W 095°24'2 1.3
2018-May-18 06:48N 28°54' W 095°22'0 0.0
2018-May-18 02:54N 28°54' W 095°22'0 0.0
2018-May-18 02:12N 28°54' W 095°22'0 0.0
2018-May-18 01:57N 28°54' W 095°22'0 0.0
2018-May-18 01:24N 28°54' W 095°22'0 0.0
2018-May-18 00:51N 28°54' W 095°22'0 0.1
2018-May-18 00:18N 28°54' W 095°22'0 0.1
2018-May-17 23:45N 28°54' W 095°22'0 0.0
2018-May-17 23:27N 28°54' W 095°22'0 0.0
2018-May-17 22:54N 28°54' W 095°22'0 0.0
2018-May-17 22:27N 28°54' W 095°22'0 0.0
2018-May-17 21:51N 28°54' W 095°22'0 0.0
2018-May-17 21:30N 28°54' W 095°22'0 0.0
2018-May-17 13:30N 28°54' W 095°22'0 0.0
2018-May-17 11:00N 28°54' W 095°22'3 3.1
2018-May-17 10:07N 28°56' W 095°20'2 4.4
2018-May-17 09:35N 28°57' W 095°18'0 3.0
2018-May-17 09:30N 28°58' W 095°17'2 3.4
2018-May-17 09:00N 28°59' W 095°16'2 4.1
2018-May-17 08:30N 29°00' W 095°15'2 4.4
2018-May-17 08:00N 29°02' W 095°14'2 4.7
2018-May-17 07:30N 29°05' W 095°13'3 4.5
2018-May-17 06:48N 29°07' W 095°11'1 3.9
2018-May-17 06:30N 29°08' W 095°10'2 4.1
2018-May-17 06:00N 29°10' W 095°08'2 4.0
2018-May-17 05:30N 29°10' W 095°06'2 4.1
2018-May-17 05:00N 29°12' W 095°04'3 5.1
2018-May-17 04:30N 29°13' W 095°02'2 5.0
2018-May-17 04:00N 29°15' W 095°00'2 4.8
2018-May-17 03:29N 29°17' W 094°58'2 4.5
2018-May-17 03:00N 29°17' W 094°56'2 4.0
2018-May-17 02:30N 29°17' W 094°54'2 4.8
2018-May-17 02:00N 29°19' W 094°52'3 5.4
2018-May-17 01:30N 29°21' W 094°49'3 5.4
2018-May-17 01:00N 29°23' W 094°49'3 6.8
2018-May-17 00:30N 29°27' W 094°50'3 6.5
2018-May-17 00:00N 29°29' W 094°52'3 6.6
2018-May-16 23:30N 29°32' W 094°54'3 5.5
2018-May-16 23:00N 29°34' W 094°56'3 6.2
2018-May-16 22:30N 29°37' W 094°58'2 3.8
2018-May-16 22:00N 29°39' W 094°58'3 5.8
2018-May-16 21:29N 29°42' W 094°60'9 4.8
2018-May-16 19:39N 29°44' W 095°09'5 1.0
2018-May-16 14:24N 29°43' W 095°15'0 0.0
2018-May-16 03:39N 29°43' W 095°15'0 0.0
2018-May-16 03:29N 29°43' W 095°15'0 0.0
2018-May-16 03:00N 29°43' W 095°15'0 0.0
2018-May-16 02:25N 29°43' W 095°15'0 0.1
2018-May-15 23:24N 29°43' W 095°15'4 6.1
2018-May-15 22:46N 29°45' W 095°11'3 6.6
2018-May-15 22:19N 29°44' W 095°07'  
Track history (hours):
 
Tides and Currents Weather Stations Pressure Air Temp Water Temp Dewpoint Dewpoint Depression Visibility Wind Speed Wind Dir Waves Ship Positions

Red Fish

Owner: Higman Barge Lines, Inc 1980 Post Oak Blvd., Suite 1101 Houston, Texas 77056, Orange, TX. More information available from US FCC via Universal Licensing System and Coast Guard Vessel Documentation Center.

Last reported at 2018-May-25 19:54 UTC. Time now 2018-May-26 02:31 UTC.
Position N 29°43' W 095°15'.

Length 205 m; draft 3 m.

Type: . MMSI: 367445690.

Date/timePositionNaut miles runAvg speedWind from/ knotsBaromVisibWave heightAir tempDewpointWater temp
2018-May-25 19:54N 29°43' W 095°15'1 0.1
2018-May-25 10:13N 29°43' W 095°15'0 0.0
2018-May-25 09:45N 29°43' W 095°15'0 0.0
2018-May-25 09:24N 29°43' W 095°15'1 0.1
2018-May-24 23:06N 29°43' W 095°14'1 5.3
2018-May-24 22:58N 29°44' W 095°13'3 6.3
2018-May-24 22:26N 29°45' W 095°10'6 0.3
2018-May-24 03:06N 29°47' W 095°04'0 0.0
2018-May-23 22:46N 29°47' W 095°04'0 0.0
2018-May-23 22:30N 29°47' W 095°04'0 0.5
2018-May-23 22:00N 29°47' W 095°04'0 0.1
2018-May-23 21:29N 29°47' W 095°04'0 0.3
2018-May-23 20:55N 29°47' W 095°04'0 0.0
2018-May-23 20:25N 29°47' W 095°04'0 0.0
2018-May-23 20:00N 29°47' W 095°04'0 0.0
2018-May-23 19:14N 29°47' W 095°04'2 0.7
2018-May-23 16:27N 29°46' W 095°06'0 0.8
2018-May-23 15:57N 29°46' W 095°06'0 0.0
2018-May-23 15:30N 29°46' W 095°06'0 0.0
2018-May-23 15:00N 29°46' W 095°06'0 0.0
2018-May-23 14:30N 29°46' W 095°06'0 0.0
2018-May-23 14:00N 29°46' W 095°06'1 1.0
2018-May-23 13:18N 29°46' W 095°05'2 2.8
2018-May-23 12:43N 29°47' W 095°04'0 0.0
2018-May-23 12:19N 29°47' W 095°04'0 0.0
2018-May-23 11:37N 29°47' W 095°04'0 0.5
2018-May-23 10:46N 29°47' W 095°05'1 0.1
2018-May-23 03:29N 29°47' W 095°04'2 0.3
2018-May-22 22:24N 29°46' W 095°05'1 1.7
2018-May-22 21:58N 29°46' W 095°06'0 0.0
2018-May-22 21:30N 29°46' W 095°06'1 0.5
2018-May-22 19:10N 29°46' W 095°05'2 4.7
2018-May-22 18:43N 29°44' W 095°03'2 6.4
2018-May-22 18:28N 29°44' W 095°02'2 5.3
2018-May-22 18:01N 29°42' W 094°60'4 7.3
2018-May-22 17:31N 29°39' W 094°58'3 6.9
2018-May-22 17:00N 29°36' W 094°56'4 7.3
2018-May-22 16:30N 29°33' W 094°54'4 8.0
2018-May-22 15:59N 29°29' W 094°52'4 8.2
2018-May-22 15:30N 29°25' W 094°50'4 8.3
2018-May-22 15:00N 29°21' W 094°48'2 4.2
2018-May-22 14:30N 29°20' W 094°50'3 5.8
2018-May-22 14:01N 29°18' W 094°53'2 4.2
2018-May-22 13:31N 29°17' W 094°55'3 5.3
2018-May-22 13:01N 29°17' W 094°58'3 5.3
2018-May-22 12:30N 29°15' W 095°00'2 4.9
2018-May-22 12:01N 29°13' W 095°02'2 4.9
2018-May-22 11:31N 29°12' W 095°04'2 4.7
2018-May-22 11:00N 29°10' W 095°07'3 5.0
2018-May-22 10:30N 29°09' W 095°09'1 2.8
2018-May-22 10:00N 29°08' W 095°10'0 0.6
2018-May-22 09:30N 29°08' W 095°10'1 2.1
2018-May-22 09:00N 29°07' W 095°11'2 3.3
2018-May-22 08:30N 29°06' W 095°12'2 3.7
2018-May-22 08:00N 29°04' W 095°13'2 4.1
2018-May-22 07:30N 29°02' W 095°14'2 4.2
2018-May-22 07:00N 29°00' W 095°15'2 3.9
2018-May-22 06:30N 28°59' W 095°16'2 3.3
2018-May-22 06:00N 28°57' W 095°17'2 4.4
2018-May-22 05:27N 28°56' W 095°19'2 2.1
2018-May-22 04:19N 28°54' W 095°22'0 1.4
2018-May-22 04:00N 28°54' W 095°22'  
2018-May-18 09:20N 28°54' W 095°23'1 2.7
2018-May-18 09:00N 28°54' W 095°22'1 3.0
2018-May-18 08:30N 28°54' W 095°24'0 0.2
2018-May-18 08:00N 28°54' W 095°24'2 1.3
2018-May-18 06:48N 28°54' W 095°22'0 0.0
2018-May-18 02:54N 28°54' W 095°22'0 0.0
2018-May-18 02:12N 28°54' W 095°22'0 0.0
2018-May-18 01:57N 28°54' W 095°22'0 0.0
2018-May-18 01:24N 28°54' W 095°22'0 0.0
2018-May-18 00:51N 28°54' W 095°22'0 0.1
2018-May-18 00:18N 28°54' W 095°22'0 0.1
2018-May-17 23:45N 28°54' W 095°22'0 0.0
2018-May-17 23:27N 28°54' W 095°22'0 0.0
2018-May-17 22:54N 28°54' W 095°22'0 0.0
2018-May-17 22:27N 28°54' W 095°22'0 0.0
2018-May-17 21:51N 28°54' W 095°22'0 0.0
2018-May-17 21:30N 28°54' W 095°22'0 0.0
2018-May-17 13:30N 28°54' W 095°22'0 0.0
2018-May-17 11:00N 28°54' W 095°22'3 3.1
2018-May-17 10:07N 28°56' W 095°20'2 4.4
2018-May-17 09:35N 28°57' W 095°18'0 3.0
2018-May-17 09:30N 28°58' W 095°17'2 3.4
2018-May-17 09:00N 28°59' W 095°16'2 4.1
2018-May-17 08:30N 29°00' W 095°15'2 4.4
2018-May-17 08:00N 29°02' W 095°14'2 4.7
2018-May-17 07:30N 29°05' W 095°13'3 4.5
2018-May-17 06:48N 29°07' W 095°11'1 3.9
2018-May-17 06:30N 29°08' W 095°10'2 4.1
2018-May-17 06:00N 29°10' W 095°08'2 4.0
2018-May-17 05:30N 29°10' W 095°06'2 4.1
2018-May-17 05:00N 29°12' W 095°04'3 5.1
2018-May-17 04:30N 29°13' W 095°02'2 5.0
2018-May-17 04:00N 29°15' W 095°00'2 4.8
2018-May-17 03:29N 29°17' W 094°58'2 4.5
2018-May-17 03:00N 29°17' W 094°56'2 4.0
2018-May-17 02:30N 29°17' W 094°54'2 4.8
2018-May-17 02:00N 29°19' W 094°52'3 5.4
2018-May-17 01:30N 29°21' W 094°49'3 5.4
2018-May-17 01:00N 29°23' W 094°49'3 6.8
2018-May-17 00:30N 29°27' W 094°50'3 6.5
2018-May-17 00:00N 29°29' W 094°52'3 6.6
2018-May-16 23:30N 29°32' W 094°54'3 5.5
2018-May-16 23:00N 29°34' W 094°56'3 6.2
2018-May-16 22:30N 29°37' W 094°58'2 3.8
2018-May-16 22:00N 29°39' W 094°58'3 5.8
2018-May-16 21:29N 29°42' W 094°60'9 4.8
2018-May-16 19:39N 29°44' W 095°09'5 1.0
2018-May-16 14:24N 29°43' W 095°15'0 0.0
2018-May-16 03:39N 29°43' W 095°15'0 0.0
2018-May-16 03:29N 29°43' W 095°15'0 0.0
2018-May-16 03:00N 29°43' W 095°15'0 0.0
2018-May-16 02:25N 29°43' W 095°15'0 0.1
2018-May-15 23:24N 29°43' W 095°15'4 6.1
2018-May-15 22:46N 29°45' W 095°11'3 6.6
2018-May-15 22:19N 29°44' W 095°07'  

Dump ship's entire track history